Time;durP1;ratioP1;P1;durP2;ratioP2;P2;SDS_P1;SDS_P2;PMS_P1;PMS_P2;Temp;Humidity;BMP_temperature;BMP_pressure;BME280_temperature;BME280_humidity;BME280_pressure;Samples;Min_cycle;Max_cycle;Signal;HPM_P1;HPM_P2
2023/06/20 00:00:51;;;;;;;6.50;5.00;;;;;;;17.79;98.06;64841.59;5073349;28;20223;-60
2023/06/20 00:03:17;;;;;;;6.10;4.68;;;;;;;17.76;99.08;64835.19;5073576;28;20266;-58
2023/06/20 00:05:43;;;;;;;6.43;4.35;;;;;;;17.87;97.60;64850.41;5073466;28;20208;-58
2023/06/20 00:08:08;;;;;;;5.65;4.97;;;;;;;18.00;96.03;64864.75;5073130;28;20185;-55
2023/06/20 00:10:34;;;;;;;5.00;4.15;;;;;;;18.06;93.83;64868.81;5073201;28;20191;-56
2023/06/20 00:13:00;;;;;;;8.15;5.13;;;;;;;18.00;95.19;64864.75;5072313;28;20303;-57
2023/06/20 00:15:26;;;;;;;6.35;4.95;;;;;;;18.02;96.92;64866.38;5073238;28;20222;-57
2023/06/20 00:17:59;;;;;;;6.55;4.18;;;;;;;18.03;95.30;64868.06;5073201;28;20245;-57
2023/06/20 00:20:25;;;;;;;6.97;4.57;;;;;;;18.08;95.83;64870.47;5072922;28;20204;-56
2023/06/20 00:22:50;;;;;;;5.38;4.82;;;;;;;18.06;96.26;64873.38;5073020;28;20184;-57
2023/06/20 00:25:17;;;;;;;5.55;4.68;;;;;;;18.06;97.09;64870.81;5073324;28;20212;-56
2023/06/20 00:27:42;;;;;;;9.10;5.47;;;;;;;18.12;96.94;64877.97;5072978;28;20245;-59
2023/06/20 00:30:08;;;;;;;8.68;4.88;;;;;;;18.12;94.00;64877.97;5073050;28;20212;-59
2023/06/20 00:32:33;;;;;;;6.18;4.90;;;;;;;18.09;93.35;64874.69;5073118;28;20188;-58
2023/06/20 00:34:59;;;;;;;5.78;4.57;;;;;;;18.05;93.16;64869.72;5073026;28;20204;-55
2023/06/20 00:37:26;;;;;;;6.00;4.80;;;;;;;17.92;93.53;64852.81;5072952;28;20334;-58
2023/06/20 00:39:51;;;;;;;5.22;4.75;;;;;;;17.75;94.38;64836.63;5072794;28;20240;-60
2023/06/20 00:42:23;;;;;;;5.80;4.85;;;;;;;17.72;95.39;64836.41;5072953;28;20346;-56
2023/06/20 00:44:49;;;;;;;7.05;4.50;;;;;;;17.72;97.22;64831.31;5072937;28;20592;-57
2023/06/20 00:47:18;;;;;;;7.30;5.15;;;;;;;17.68;97.65;64829.47;5054920;28;20218;-57
2023/06/20 00:49:46;;;;;;;8.77;5.22;;;;;;;17.63;98.56;64821.41;5072878;28;20700;-56
2023/06/20 00:52:14;;;;;;;6.35;4.40;;;;;;;17.65;98.08;64828.72;5072491;28;20185;-55
2023/06/20 00:54:42;;;;;;;5.10;4.63;;;;;;;17.63;98.62;64826.50;5072879;28;20212;-56
2023/06/20 00:57:08;;;;;;;5.70;4.85;;;;;;;17.56;98.87;64816.25;5072668;28;20184;-56
2023/06/20 00:59:34;;;;;;;6.97;5.47;;;;;;;17.54;97.99;64814.03;5072601;28;20577;-56
2023/06/20 01:02:00;;;;;;;6.90;5.10;;;;;;;17.46;99.00;64805.75;5054418;28;20270;-58
2023/06/20 01:04:26;;;;;;;8.15;4.82;;;;;;;17.53;98.42;64813.47;5054441;28;20217;-59
2023/06/20 01:07:07;;;;;;;6.88;5.47;;;;;;;17.41;99.38;64800.22;5072265;28;20267;-56
2023/06/20 01:10:15;;;;;;;6.55;5.43;;;;;;;17.34;99.72;64794.53;5072368;28;20228;-56
2023/06/20 01:13:16;;;;;;;7.82;5.07;;;;;;;17.42;100.00;64801.34;5025462;28;20319;-60
2023/06/20 01:16:01;;;;;;;8.63;5.53;;;;;;;17.40;100.00;64801.69;5019139;28;20618;-59
2023/06/20 01:19:09;;;;;;;8.45;5.75;;;;;;;17.40;100.00;64801.13;5072324;28;20205;-60
2023/06/20 01:21:44;;;;;;;6.22;5.53;;;;;;;17.43;100.00;64802.44;5072196;28;20292;-60
2023/06/20 01:24:51;;;;;;;6.55;5.50;;;;;;;17.40;100.00;64796.59;5071990;28;20273;-60
2023/06/20 01:27:28;;;;;;;8.07;5.97;;;;;;;17.53;100.00;64815.50;5068790;28;20255;-60
2023/06/20 01:30:23;;;;;;;11.25;6.05;;;;;;;17.50;100.00;64809.63;5072090;28;20197;-60
2023/06/20 01:32:53;;;;;;;8.32;6.13;;;;;;;17.30;100.00;64785.56;5071406;28;20267;-61
2023/06/20 01:35:29;;;;;;;10.85;6.47;;;;;;;17.26;100.00;64785.72;5069964;28;20220;-56
2023/06/20 01:38:00;;;;;;;9.18;6.13;;;;;;;17.30;100.00;64785.03;5070066;28;20196;-57
2023/06/20 01:40:27;;;;;;;9.30;6.43;;;;;;;17.24;100.00;64786.06;5069993;28;20185;-57
2023/06/20 01:42:58;;;;;;;7.05;5.72;;;;;;;17.27;100.00;64786.81;5070800;28;20215;-57
2023/06/20 01:45:27;;;;;;;5.88;5.28;;;;;;;17.31;100.00;64786.13;5071814;28;20192;-56
2023/06/20 01:47:58;;;;;;;6.97;5.72;;;;;;;17.27;100.00;64784.81;5070812;28;20234;-56
2023/06/20 01:50:27;;;;;;;10.43;5.90;;;;;;;17.26;100.00;64783.72;5071631;28;20200;-56
2023/06/20 01:52:54;;;;;;;6.55;5.18;;;;;;;17.24;100.00;64778.41;5071541;28;20180;-57
2023/06/20 01:55:21;;;;;;;8.43;6.00;;;;;;;17.28;100.00;64785.38;5071700;28;20193;-57
2023/06/20 01:57:48;;;;;;;7.70;5.68;;;;;;;17.22;100.00;64778.75;5071708;28;20662;-56
2023/06/20 02:00:16;;;;;;;6.50;5.60;;;;;;;17.35;100.00;64795.63;5071477;28;20208;-56
2023/06/20 02:02:43;;;;;;;12.30;6.05;;;;;;;17.24;100.00;64780.97;5071590;28;20244;-57
2023/06/20 02:05:11;;;;;;;8.32;5.68;;;;;;;17.30;100.00;64790.13;5071371;28;20295;-58
2023/06/20 02:07:38;;;;;;;8.43;6.05;;;;;;;17.18;100.00;64774.34;5071471;28;20272;-59
2023/06/20 02:10:05;;;;;;;7.68;5.22;;;;;;;17.07;100.00;64759.69;5071402;28;20204;-58
2023/06/20 02:12:32;;;;;;;9.80;6.15;;;;;;;17.04;100.00;64759.47;5071328;28;20195;-61
2023/06/20 02:14:59;;;;;;;7.85;5.80;;;;;;;17.01;100.00;64755.63;5071393;28;20284;-60
2023/06/20 02:17:25;;;;;;;9.98;6.32;;;;;;;17.25;100.00;64782.06;5071291;28;20193;-59
2023/06/20 02:19:51;;;;;;;8.63;5.65;;;;;;;17.11;100.00;64767.19;5071609;28;20711;-55
2023/06/20 02:22:19;;;;;;;10.70;6.63;;;;;;;17.07;100.00;64759.69;5071272;28;20563;-59
2023/06/20 02:24:49;;;;;;;7.35;5.75;;;;;;;16.87;100.00;64738.19;5071456;28;20212;-60
2023/06/20 02:27:17;;;;;;;11.45;6.38;;;;;;;16.77;100.00;64727.75;5071388;28;20199;-60
2023/06/20 02:29:45;;;;;;;8.55;6.18;;;;;;;16.90;100.00;64740.97;5071321;28;20289;-63
2023/06/20 02:32:13;;;;;;;8.40;6.55;;;;;;;16.79;100.00;64732.50;5071130;28;20192;-56
2023/06/20 02:34:43;;;;;;;11.65;6.20;;;;;;;16.81;100.00;64734.13;5071107;28;20237;-60
2023/06/20 02:37:09;;;;;;;8.65;6.07;;;;;;;16.66;100.00;64717.63;5070266;28;20250;-59
2023/06/20 02:39:35;;;;;;;9.63;6.07;;;;;;;16.73;100.00;64728.44;5070807;28;20216;-55
2023/06/20 02:42:00;;;;;;;7.85;6.05;;;;;;;16.58;100.00;64709.34;5070912;28;20285;-59
2023/06/20 02:44:26;;;;;;;9.20;5.95;;;;;;;16.44;100.00;64693.94;5071527;28;20685;-58
2023/06/20 02:47:23;;;;;;;7.03;5.65;;;;;;;16.34;100.00;64682.91;5071104;28;20272;-57
2023/06/20 02:50:16;;;;;;;6.55;5.18;;;;;;;16.27;100.00;64675.22;5071257;28;20710;-56
2023/06/20 02:52:48;;;;;;;9.27;5.82;;;;;;;16.19;100.00;64666.41;5070840;28;20188;-58
2023/06/20 02:55:30;;;;;;;7.32;5.43;;;;;;;16.20;100.00;64666.97;5070499;28;20208;-57
2023/06/20 02:57:59;;;;;;;8.45;6.18;;;;;;;16.19;100.00;64665.84;5070709;28;20196;-60
2023/06/20 03:00:25;;;;;;;14.88;6.95;;;;;;;16.18;100.00;64665.31;5070566;28;20618;-61
2023/06/20 03:03:09;;;;;;;11.38;5.75;;;;;;;16.23;100.00;64668.28;5070664;28;20267;-61
2023/06/20 03:05:38;;;;;;;6.65;5.97;;;;;;;16.17;100.00;64663.66;5070923;28;20235;-58
2023/06/20 03:08:05;;;;;;;7.68;5.80;;;;;;;16.22;100.00;64669.19;5070708;28;20197;-57
2023/06/20 03:10:32;;;;;;;10.18;5.85;;;;;;;16.26;100.00;64673.56;5070668;28;20185;-59
2023/06/20 03:12:59;;;;;;;7.00;5.40;;;;;;;16.28;100.00;64676.31;5070784;28;20756;-58
2023/06/20 03:15:24;;;;;;;7.22;5.50;;;;;;;16.31;100.00;64676.53;5070407;28;20211;-55
2023/06/20 03:17:50;;;;;;;9.18;5.75;;;;;;;16.34;100.00;64685.47;5070429;28;20192;-57
2023/06/20 03:20:15;;;;;;;9.00;5.22;;;;;;;16.40;100.00;64692.06;5070305;28;20205;-57
2023/06/20 03:22:41;;;;;;;7.80;5.35;;;;;;;16.48;100.00;64700.88;5070177;28;20239;-55
2023/06/20 03:25:06;;;;;;;7.10;6.00;;;;;;;16.43;100.00;64692.84;5070021;28;20209;-55
2023/06/20 03:27:32;;;;;;;9.50;6.03;;;;;;;16.49;100.00;64698.91;5070497;28;20658;-58
2023/06/20 03:30:03;;;;;;;7.20;6.32;;;;;;;16.61;100.00;64712.13;5070690;28;20721;-57
2023/06/20 03:32:29;;;;;;;7.50;6.07;;;;;;;16.56;100.00;64707.16;5070376;28;20196;-58
2023/06/20 03:34:54;;;;;;;7.57;6.35;;;;;;;16.43;100.00;64690.28;5052054;28;20419;-57
2023/06/20 03:37:19;;;;;;;8.00;6.40;;;;;;;16.41;100.00;64690.63;5070275;28;20189;-58
2023/06/20 03:39:45;;;;;;;12.40;6.45;;;;;;;16.58;100.00;64708.81;5070226;28;20217;-56
2023/06/20 03:42:10;;;;;;;9.43;7.20;;;;;;;16.49;100.00;64699.47;5069897;28;20205;-56
2023/06/20 03:44:36;;;;;;;9.00;6.38;;;;;;;16.62;100.00;64713.22;5070074;28;20694;-56
2023/06/20 03:47:01;;;;;;;8.40;6.90;;;;;;;16.56;100.00;64706.63;5070621;28;20590;-58
2023/06/20 03:49:27;;;;;;;8.70;6.95;;;;;;;16.71;100.00;64720.59;5073895;28;20243;-55
2023/06/20 03:51:52;;;;;;;11.07;7.00;;;;;;;16.64;100.00;64715.97;5073502;28;20189;-57
2023/06/20 03:54:18;;;;;;;8.93;6.65;;;;;;;16.69;100.00;64724.03;5055663;28;20274;-60
2023/06/20 03:56:43;;;;;;;9.32;7.07;;;;;;;16.74;100.00;64726.44;5073896;28;20200;-58
2023/06/20 03:59:08;;;;;;;9.48;6.90;;;;;;;16.90;100.00;64744.06;5073435;28;20221;-56
2023/06/20 04:01:35;;;;;;;11.65;7.22;;;;;;;17.10;100.00;64768.63;5073527;28;20297;-59
2023/06/20 04:04:00;;;;;;;11.82;7.25;;;;;;;17.22;100.00;64776.22;5073454;28;20288;-58
2023/06/20 04:06:30;;;;;;;12.82;7.78;;;;;;;17.25;100.00;64782.59;5073398;28;20283;-60
2023/06/20 04:08:55;;;;;;;11.18;7.50;;;;;;;17.09;100.00;64764.44;5055108;28;20229;-60
2023/06/20 04:11:21;;;;;;;8.50;7.10;;;;;;;17.06;100.00;64763.69;5073173;28;20591;-60
2023/06/20 04:13:47;;;;;;;11.52;7.50;;;;;;;16.82;100.00;64734.69;5073417;28;20212;-60
2023/06/20 04:16:12;;;;;;;9.13;7.13;;;;;;;16.99;100.00;64753.44;5073153;28;20189;-56
2023/06/20 04:18:38;;;;;;;7.55;6.38;;;;;;;17.04;100.00;64758.94;5073263;28;20213;-56
2023/06/20 04:21:03;;;;;;;9.40;6.93;;;;;;;17.35;100.00;64791.06;5072928;28;20212;-58
2023/06/20 04:23:29;;;;;;;12.02;8.23;;;;;;;17.62;100.00;64820.31;5073130;28;20755;-57
2023/06/20 04:25:54;;;;;;;9.27;6.63;;;;;;;17.58;100.00;64818.44;5072853;28;20597;-59
2023/06/20 04:28:19;;;;;;;9.85;7.15;;;;;;;17.33;100.00;64791.41;5072835;28;20216;-57
2023/06/20 04:30:45;;;;;;;10.55;7.28;;;;;;;17.23;100.00;64779.88;5072422;28;20221;-58
2023/06/20 04:33:10;;;;;;;10.00;6.72;;;;;;;17.50;100.00;64807.09;5054866;28;20293;-58
2023/06/20 04:35:35;;;;;;;10.55;7.13;;;;;;;17.88;100.00;64850.94;5072725;28;20690;-57
2023/06/20 04:38:03;;;;;;;15.02;7.63;;;;;;;17.94;100.00;64855.56;5072888;28;20662;-60
2023/06/20 04:40:29;;;;;;;13.00;7.00;;;;;;;18.18;100.00;64882.03;5072668;28;20196;-59
2023/06/20 04:42:54;;;;;;;9.40;6.35;;;;;;;18.15;100.00;64881.28;5072958;28;20220;-60
2023/06/20 04:45:19;;;;;;;14.02;7.45;;;;;;;18.36;100.00;64903.91;5072644;28;20205;-57
2023/06/20 04:47:50;;;;;;;42.00;10.10;;;;;;;18.25;100.00;64889.22;5072676;28;20193;-59
2023/06/20 04:50:15;;;;;;;22.00;7.97;;;;;;;18.20;100.00;64884.25;5072698;28;20205;-57
2023/06/20 04:52:41;;;;;;;14.93;6.72;;;;;;;18.04;100.00;64866.06;5072481;28;20212;-56
2023/06/20 04:55:06;;;;;;;9.50;7.10;;;;;;;18.09;100.00;64872.13;5072264;28;20209;-57
2023/06/20 04:57:33;;;;;;;11.48;6.93;;;;;;;18.14;100.00;64880.19;5072544;28;20173;-58
2023/06/20 04:59:59;;;;;;;13.05;7.28;;;;;;;18.35;100.00;64900.78;5071461;28;20236;-59
2023/06/20 05:02:25;;;;;;;12.32;6.75;;;;;;;18.42;100.00;64911.06;5072390;28;20718;-56
2023/06/20 05:04:51;;;;;;;10.23;7.13;;;;;;;18.79;100.00;64946.25;5072481;28;20212;-56
2023/06/20 05:07:16;;;;;;;10.13;7.65;;;;;;;19.11;100.00;64986.09;5072410;28;20258;-58
2023/06/20 05:09:43;;;;;;;13.68;7.80;;;;;;;19.01;100.00;64972.50;5072013;28;20208;-58
2023/06/20 05:12:08;;;;;;;13.05;9.93;;;;;;;19.19;100.00;64992.94;5072167;28;20770;-56
2023/06/20 05:14:34;;;;;;;17.13;11.45;;;;;;;19.23;100.00;64999.34;5072153;28;20295;-60
2023/06/20 05:17:00;;;;;;;12.23;9.02;;;;;;;19.23;100.00;64999.34;5072154;28;20724;-59
2023/06/20 05:19:25;;;;;;;13.90;8.30;;;;;;;19.34;100.00;65008.97;5054296;28;20212;-61
2023/06/20 05:21:51;;;;;;;9.13;8.18;;;;;;;19.46;100.00;65024.78;5072173;28;20299;-55
2023/06/20 05:24:16;;;;;;;13.43;8.18;;;;;;;19.50;96.58;65026.06;5072356;28;20239;-60
2023/06/20 05:26:41;;;;;;;10.80;7.20;;;;;;;19.21;100.00;64994.59;5071959;28;20522;-60
2023/06/20 05:29:07;;;;;;;12.07;8.48;;;;;;;19.21;99.75;64997.13;5071981;28;20321;-60
2023/06/20 05:31:32;;;;;;;14.55;9.20;;;;;;;19.27;98.51;65004.31;5071924;28;20193;-59
2023/06/20 05:33:58;;;;;;;15.73;9.70;;;;;;;19.23;98.43;64999.91;5070199;28;20212;-58
2023/06/20 05:36:23;;;;;;;14.32;9.25;;;;;;;19.10;98.50;64982.44;5069845;28;20192;-58
2023/06/20 05:38:51;;;;;;;16.40;9.82;;;;;;;18.94;99.31;64967.91;5069572;28;20207;-57
2023/06/20 05:41:16;;;;;;;14.38;9.32;;;;;;;18.81;100.00;64947.88;5069402;28;20278;-56
2023/06/20 05:43:42;;;;;;;18.75;10.55;;;;;;;18.79;100.00;64951.34;5071340;28;20244;-60
2023/06/20 05:46:08;;;;;;;15.57;9.07;;;;;;;19.00;100.00;64974.53;5071776;28;20665;-60
2023/06/20 05:48:34;;;;;;;11.88;9.38;;;;;;;19.08;100.00;64983.34;5072040;28;20642;-56
2023/06/20 05:51:00;;;;;;;15.10;9.52;;;;;;;19.33;100.00;65007.88;5053699;28;20197;-55
2023/06/20 05:53:27;;;;;;;11.60;8.40;;;;;;;19.45;100.00;65023.69;5071746;28;20214;-56
2023/06/20 05:55:52;;;;;;;12.93;8.05;;;;;;;19.58;100.00;65038.03;5071523;28;20193;-62
2023/06/20 05:58:19;;;;;;;12.90;8.43;;;;;;;19.55;100.00;65032.16;5071742;28;20212;-60
2023/06/20 06:00:45;;;;;;;11.82;8.70;;;;;;;19.55;100.00;65036.72;5071367;28;20208;-56
2023/06/20 06:03:12;;;;;;;9.98;8.50;;;;;;;19.87;100.00;65069.50;5071627;28;20291;-60
2023/06/20 06:05:37;;;;;;;17.40;9.57;;;;;;;20.08;100.00;65093.25;5071333;28;20224;-58
2023/06/20 06:08:02;;;;;;;12.13;8.30;;;;;;;20.36;100.00;65120.53;5053333;28;20232;-59
2023/06/20 06:10:28;;;;;;;13.13;8.50;;;;;;;20.66;100.00;65154.25;5070399;28;20213;-57
2023/06/20 06:12:53;;;;;;;13.15;9.30;;;;;;;20.79;100.00;65170.59;5070881;28;20212;-57
2023/06/20 06:15:19;;;;;;;12.50;8.65;;;;;;;20.85;98.98;65177.81;5071238;28;20218;-59
2023/06/20 06:17:44;;;;;;;12.05;8.85;;;;;;;21.23;97.50;65214.16;5071130;28;20193;-59
2023/06/20 06:20:15;;;;;;;10.82;9.00;;;;;;;21.18;94.44;65211.19;5071008;28;20652;-56
2023/06/20 06:22:41;;;;;;;14.63;8.68;;;;;;;21.26;95.74;65219.47;5071016;28;20239;-56
2023/06/20 06:25:09;;;;;;;13.85;9.70;;;;;;;21.19;92.22;65211.75;5071069;28;20647;-60
2023/06/20 06:27:35;;;;;;;15.73;9.30;;;;;;;21.04;90.87;65198.28;5071061;28;20173;-60
2023/06/20 06:30:01;;;;;;;13.05;9.52;;;;;;;20.77;93.66;65166.41;5070912;28;20666;-56
2023/06/20 06:32:27;;;;;;;12.13;9.10;;;;;;;20.77;96.49;65165.84;5071010;28;20197;-56
2023/06/20 06:34:54;;;;;;;11.80;8.60;;;;;;;20.78;95.05;65170.06;5071209;28;20224;-57
2023/06/20 06:37:21;;;;;;;12.63;9.32;;;;;;;21.16;98.92;65208.97;5070940;28;20213;-56
2023/06/20 06:39:47;;;;;;;17.55;10.05;;;;;;;21.18;93.68;65211.19;5071185;28;20213;-59
2023/06/20 06:42:19;;;;;;;16.60;9.68;;;;;;;21.27;89.71;65223.16;5070734;28;20708;-58
2023/06/20 06:44:45;;;;;;;15.63;10.75;;;;;;;21.14;90.46;65206.78;5070734;28;20299;-59
2023/06/20 06:47:10;;;;;;;13.23;9.77;;;;;;;21.12;91.05;65201.44;5070827;28;20285;-60
2023/06/20 06:49:36;;;;;;;13.27;9.98;;;;;;;21.14;90.30;65206.22;5071086;28;20690;-55
2023/06/20 06:52:01;;;;;;;16.25;11.00;;;;;;;20.93;90.64;65186.66;5052781;28;20196;-56
2023/06/20 06:54:27;;;;;;;12.88;10.82;;;;;;;20.83;90.74;65175.59;5070466;28;20236;-56
2023/06/20 06:56:52;;;;;;;13.55;10.88;;;;;;;20.68;91.70;65155.91;5070938;28;20201;-58
2023/06/20 06:59:18;;;;;;;13.13;9.25;;;;;;;20.76;93.22;65164.75;5070836;28;20641;-57
2023/06/20 07:01:44;;;;;;;17.23;10.25;;;;;;;20.90;92.82;65183.34;5070544;28;20235;-55
2023/06/20 07:04:10;;;;;;;14.48;9.68;;;;;;;21.07;92.76;65196.47;5070696;28;20259;-56
2023/06/20 07:06:35;;;;;;;15.35;9.77;;;;;;;21.31;92.15;65225.56;5070539;28;20204;-56
2023/06/20 07:09:01;;;;;;;16.80;9.43;;;;;;;21.68;92.00;65263.94;5070357;28;20213;-57
2023/06/20 07:11:26;;;;;;;13.88;10.40;;;;;;;21.70;88.00;65268.16;5070346;28;20201;-59
2023/06/20 07:13:52;;;;;;;12.25;9.85;;;;;;;21.90;83.65;65290.31;5070876;28;20212;-59
2023/06/20 07:16:17;;;;;;;13.80;10.45;;;;;;;21.89;83.82;65288.66;5070599;28;20703;-64
2023/06/20 07:18:43;;;;;;;15.10;9.35;;;;;;;21.99;87.78;65302.84;5070635;28;20220;-60
2023/06/20 07:21:08;;;;;;;13.70;9.38;;;;;;;22.26;87.82;65329.59;5070409;28;20296;-60
2023/06/20 07:23:34;;;;;;;16.80;9.73;;;;;;;22.31;83.67;65335.69;5073333;28;20286;-61
2023/06/20 07:26:00;;;;;;;13.52;9.27;;;;;;;22.37;82.76;65339.75;5055829;28;20181;-58
2023/06/20 07:28:26;;;;;;;13.32;8.82;;;;;;;22.28;83.59;65331.81;5074114;28;20212;-60
2023/06/20 07:30:52;;;;;;;11.00;8.25;;;;;;;22.57;83.63;65363.91;5073938;28;20189;-60
2023/06/20 07:33:18;;;;;;;11.48;7.82;;;;;;;22.78;78.87;65387.19;5055802;28;20600;-56
2023/06/20 07:35:43;;;;;;;12.52;8.98;;;;;;;23.00;81.46;65411.00;5073670;28;20196;-57
2023/06/20 07:38:09;;;;;;;13.90;8.30;;;;;;;23.29;81.56;65443.13;5073918;28;20662;-57
2023/06/20 07:40:34;;;;;;;14.27;7.82;;;;;;;23.38;76.56;65452.56;5073871;28;20204;-59
2023/06/20 07:43:00;;;;;;;9.95;7.32;;;;;;;23.43;75.38;65458.09;5073722;28;20311;-57
2023/06/20 07:45:25;;;;;;;12.77;8.27;;;;;;;23.58;76.11;65474.72;5073379;28;20205;-57
2023/06/20 07:47:50;;;;;;;11.27;7.35;;;;;;;23.68;73.55;65485.78;5073611;28;20201;-58
2023/06/20 07:50:16;;;;;;;10.13;7.35;;;;;;;23.90;73.35;65507.59;5073492;28;20199;-57
2023/06/20 07:52:42;;;;;;;13.95;6.75;;;;;;;23.96;67.37;65517.38;5073308;28;20201;-57
2023/06/20 07:55:08;;;;;;;7.43;6.38;;;;;;;24.03;66.00;65524.63;5055338;28;20201;-57
2023/06/20 07:57:33;;;;;;;7.57;6.07;;;;;;;24.03;63.09;65525.19;5055688;28;20170;-60
2023/06/20 07:59:59;;;;;;;9.25;6.10;;;;;;;23.94;61.44;65517.19;5073771;28;20208;-57
2023/06/20 08:02:25;;;;;;;6.93;6.22;;;;;;;24.09;61.38;65534.41;5073245;28;20209;-61
2023/06/20 08:04:50;;;;;;;9.07;6.28;;;;;;;24.20;58.47;65542.91;5073636;28;20219;-58
2023/06/20 08:07:16;;;;;;;8.07;6.13;;;;;;;24.02;59.66;65521.47;5073219;28;20228;-57
2023/06/20 08:09:41;;;;;;;7.97;5.95;;;;;;;24.04;60.04;65521.13;5073358;28;20278;-61
2023/06/20 08:12:08;;;;;;;8.90;5.57;;;;;;;23.92;59.52;65512.41;5073197;28;20582;-57
2023/06/20 08:14:33;;;;;;;7.28;5.93;;;;;;;23.97;60.75;65515.94;5073167;28;20217;-57
2023/06/20 08:16:59;;;;;;;7.53;5.90;;;;;;;24.07;61.31;65529.06;5073295;28;20197;-59
2023/06/20 08:19:24;;;;;;;12.88;5.97;;;;;;;24.22;64.53;65542.56;5073118;28;20778;-61
2023/06/20 08:21:49;;;;;;;6.55;5.45;;;;;;;24.27;62.01;65548.66;5072932;28;20270;-59
2023/06/20 08:24:15;;;;;;;8.90;6.18;;;;;;;24.32;60.23;65554.19;5073209;28;20209;-58
2023/06/20 08:26:40;;;;;;;8.35;5.90;;;;;;;24.51;60.85;65575.25;5072808;28;20189;-57
2023/06/20 08:29:08;;;;;;;8.68;6.22;;;;;;;24.92;61.49;65620.78;5073126;28;20678;-56
2023/06/20 08:31:36;;;;;;;5.78;5.10;;;;;;;25.32;60.49;65666.63;5073273;28;20197;-57
2023/06/20 08:34:05;;;;;;;8.85;7.65;;;;;;;25.38;59.96;65671.25;5071679;28;20241;-57
2023/06/20 08:36:32;;;;;;;10.80;5.97;;;;;;;25.46;61.23;65682.19;5072799;28;20254;-56
2023/06/20 08:38:59;;;;;;;12.18;6.95;;;;;;;25.07;57.99;65638.88;5072601;28;20299;-56
2023/06/20 08:41:25;;;;;;;8.65;5.93;;;;;;;25.14;59.45;65644.06;5072646;28;20653;-56
2023/06/20 08:43:51;;;;;;;8.25;6.75;;;;;;;25.14;55.81;65641.47;5072860;28;20213;-60
2023/06/20 08:46:16;;;;;;;8.18;6.40;;;;;;;25.46;56.48;65682.19;5072640;28;20212;-59
2023/06/20 08:48:42;;;;;;;8.80;6.10;;;;;;;25.36;55.19;65668.47;5072826;28;20212;-58
2023/06/20 08:51:13;;;;;;;9.65;6.30;;;;;;;25.25;53.31;65656.81;5072771;28;20196;-59
2023/06/20 08:53:40;;;;;;;10.98;6.60;;;;;;;25.65;56.90;65700.69;5072529;28;20213;-61
2023/06/20 08:56:06;;;;;;;8.35;5.80;;;;;;;25.81;53.89;65721.03;5072490;28;20177;-61
2023/06/20 08:58:32;;;;;;;7.70;6.07;;;;;;;25.99;53.79;65743.06;5072713;28;20221;-59
2023/06/20 09:00:57;;;;;;;7.40;6.40;;;;;;;25.61;52.74;65696.25;5072671;28;20211;-56
2023/06/20 09:03:23;;;;;;;10.07;6.85;;;;;;;25.74;52.49;65710.69;5072333;28;20573;-57
2023/06/20 09:05:48;;;;;;;8.68;6.03;;;;;;;25.74;54.09;65713.25;5072429;28;20235;-60
2023/06/20 09:08:14;;;;;;;8.35;6.45;;;;;;;25.77;53.15;65716.59;5072325;28;20232;-56
2023/06/20 09:10:41;;;;;;;7.53;6.05;;;;;;;25.70;53.63;65709.38;5072400;28;20280;-57
2023/06/20 09:13:08;;;;;;;7.63;6.13;;;;;;;25.85;52.42;65722.34;5072540;28;20697;-62
2023/06/20 09:15:34;;;;;;;7.72;6.13;;;;;;;26.19;53.10;65762.69;5072258;28;20585;-58
2023/06/20 09:18:01;;;;;;;7.78;6.50;;;;;;;26.07;52.76;65749.94;5054258;28;20209;-56
2023/06/20 09:20:29;;;;;;;7.25;6.10;;;;;;;25.49;52.73;65685.53;5072300;28;20199;-57
2023/06/20 09:22:54;;;;;;;8.68;6.03;;;;;;;25.78;53.47;65718.25;5071923;28;20220;-57
2023/06/20 09:25:22;;;;;;;6.15;5.53;;;;;;;25.90;49.76;65727.91;5072360;28;20173;-61
2023/06/20 09:27:48;;;;;;;7.68;6.25;;;;;;;26.47;48.17;65791.22;5072122;28;20204;-61
2023/06/20 09:30:14;;;;;;;8.30;6.63;;;;;;;26.10;53.60;65750.13;5072147;28;20728;-59
2023/06/20 09:32:40;;;;;;;9.15;6.25;;;;;;;25.87;53.34;65725.13;5072086;28;20201;-62
2023/06/20 09:35:07;;;;;;;6.68;5.80;;;;;;;26.39;51.24;65785.47;5071959;28;20349;-58
2023/06/20 09:37:39;;;;;;;6.88;6.03;;;;;;;26.54;52.13;65799.53;5071967;28;20284;-57
2023/06/20 09:40:12;;;;;;;6.65;5.88;;;;;;;26.48;48.41;65794.94;5071678;28;20307;-56
2023/06/20 09:42:39;;;;;;;8.75;5.85;;;;;;;26.79;52.25;65826.78;5071823;28;20341;-59
2023/06/20 09:45:06;;;;;;;8.27;6.13;;;;;;;26.96;48.03;65842.56;5071791;28;20201;-61
2023/06/20 09:47:33;;;;;;;6.55;5.95;;;;;;;26.60;51.38;65808.81;5071868;28;20289;-57
2023/06/20 09:50:03;;;;;;;9.38;5.78;;;;;;;26.95;50.79;65844.56;5071569;28;20289;-57
2023/06/20 09:52:36;;;;;;;8.57;6.28;;;;;;;27.78;52.50;65936.31;5072037;28;20197;-61
2023/06/20 09:55:08;;;;;;;9.73;5.93;;;;;;;27.85;52.59;65946.72;5071512;28;20265;-61
2023/06/20 09:57:39;;;;;;;7.50;6.00;;;;;;;27.43;53.58;65894.81;5071755;28;20199;-56
2023/06/20 10:00:12;;;;;;;8.27;6.13;;;;;;;27.07;53.24;65857.91;5071543;28;20217;-58
2023/06/20 10:02:41;;;;;;;9.88;6.57;;;;;;;26.66;50.71;65812.34;5071310;28;20655;-59
2023/06/20 10:05:08;;;;;;;7.72;6.50;;;;;;;26.62;49.58;65811.03;5071264;28;20292;-57
2023/06/20 10:07:37;;;;;;;9.43;7.07;;;;;;;27.24;49.82;65876.25;5071499;28;20254;-59
2023/06/20 10:10:03;;;;;;;7.43;6.28;;;;;;;27.30;49.22;65883.50;5071369;28;20212;-60
2023/06/20 10:12:29;;;;;;;8.60;6.20;;;;;;;27.31;51.12;65887.19;5071329;28;20200;-57
2023/06/20 10:14:56;;;;;;;6.93;6.22;;;;;;;27.36;49.39;65889.63;5072181;28;20200;-57
2023/06/20 10:17:32;;;;;;;9.15;6.93;;;;;;;26.61;49.87;65809.38;5071222;28;20200;-59
2023/06/20 10:19:59;;;;;;;7.70;6.38;;;;;;;26.54;53.71;65801.59;5071204;28;20209;-57
2023/06/20 10:22:34;;;;;;;10.55;6.63;;;;;;;26.22;53.97;65764.00;5071032;28;20221;-57
2023/06/20 10:25:15;;;;;;;7.38;5.93;;;;;;;26.11;54.01;65751.78;5071226;28;20765;-61
2023/06/20 10:27:54;;;;;;;9.60;6.35;;;;;;;26.23;59.33;65765.13;5071193;28;20205;-59
2023/06/20 10:30:49;;;;;;;7.07;6.30;;;;;;;26.45;54.75;65792.16;5071065;28;20197;-60
2023/06/20 10:33:17;;;;;;;7.63;6.57;;;;;;;26.18;52.97;65759.56;5060101;28;20225;-58
2023/06/20 10:36:03;;;;;;;10.07;6.15;;;;;;;26.01;53.88;65740.66;5070934;28;20701;-57
2023/06/20 10:38:31;;;;;;;6.97;6.28;;;;;;;26.22;57.85;65766.59;5070445;28;20729;-58
2023/06/20 10:41:06;;;;;;;7.68;6.80;;;;;;;26.13;59.07;65754.03;5070424;28;20196;-56
2023/06/20 10:43:51;;;;;;;9.55;6.40;;;;;;;26.13;62.41;65756.59;5069930;28;20208;-60
2023/06/20 10:46:18;;;;;;;8.90;6.35;;;;;;;26.94;56.81;65843.47;5071033;28;20191;-59
2023/06/20 10:48:44;;;;;;;7.90;5.85;;;;;;;26.64;58.49;65810.13;5070960;28;20213;-59
2023/06/20 10:51:11;;;;;;;6.30;5.70;;;;;;;26.48;59.30;65792.88;5070878;28;20196;-59
2023/06/20 10:53:37;;;;;;;8.02;6.32;;;;;;;26.36;62.95;65779.00;5070557;28;20255;-59
2023/06/20 10:56:03;;;;;;;7.45;5.97;;;;;;;26.39;62.05;65785.47;5070634;28;20234;-60
2023/06/20 10:58:28;;;;;;;8.15;5.85;;;;;;;27.13;58.53;65867.16;5070149;28;20704;-57
2023/06/20 11:00:54;;;;;;;10.70;6.93;;;;;;;27.80;55.37;65938.56;5070490;28;20246;-56
2023/06/20 11:03:21;;;;;;;6.50;5.85;;;;;;;28.40;50.97;66004.22;5070463;28;20224;-61
2023/06/20 11:05:51;;;;;;;6.95;5.80;;;;;;;28.67;51.16;66034.28;5070530;28;20283;-60
2023/06/20 11:08:27;;;;;;;7.40;6.22;;;;;;;29.11;50.45;66080.66;5070526;28;20674;-59
2023/06/20 11:10:53;;;;;;;8.05;5.55;;;;;;;29.16;49.88;66085.69;5070375;28;20196;-59
2023/06/20 11:13:26;;;;;;;8.15;6.38;;;;;;;28.80;50.14;66048.75;5070725;28;20208;-57
2023/06/20 11:15:51;;;;;;;7.63;6.93;;;;;;;29.39;49.92;66111.84;5070543;28;20212;-60
2023/06/20 11:18:17;;;;;;;7.35;6.05;;;;;;;29.61;48.79;66133.75;5070292;28;20208;-61
2023/06/20 11:20:45;;;;;;;6.55;5.95;;;;;;;30.26;47.68;66210.31;5070396;28;20572;-60
2023/06/20 11:23:12;;;;;;;7.57;6.78;;;;;;;30.32;50.25;66214.41;5070258;28;20212;-60
2023/06/20 11:25:39;;;;;;;6.35;5.75;;;;;;;30.46;47.08;66230.03;5070339;28;20279;-60
2023/06/20 11:28:15;;;;;;;6.82;6.13;;;;;;;30.59;46.22;66244.50;5070264;28;20208;-59
2023/06/20 11:30:43;;;;;;;11.82;6.53;;;;;;;30.93;45.94;66284.50;5070295;28;20271;-61